Time;durP1;ratioP1;P1;durP2;ratioP2;P2;SDS_P1;SDS_P2;PMS_P1;PMS_P2;Temp;Humidity;BMP_temperature;BMP_pressure;BME280_temperature;BME280_humidity;BME280_pressure;Samples;Min_cycle;Max_cycle;Signal;HPM_P1;HPM_P2
2022/02/14 00:00:24;;;;;;;7.85;5.70;;;;;;;-1.59;100.00;92456.06;2095680;28;20047;-83
2022/02/14 00:01:27;;;;;;;8.88;5.60;;;;;;;-1.60;100.00;92459.81;2091646;28;20471;-83
2022/02/14 00:02:29;;;;;;;9.57;5.47;;;;;;;-1.59;100.00;92450.81;2089760;28;20107;-83
2022/02/14 00:03:30;;;;;;;7.75;5.43;;;;;;;-1.63;100.00;92450.03;2097979;28;20421;-83
2022/02/14 00:04:32;;;;;;;12.73;6.15;;;;;;;-1.63;100.00;92460.50;2101485;28;20773;-83
2022/02/14 00:05:33;;;;;;;7.68;5.90;;;;;;;-1.64;100.00;92453.75;2100357;28;20024;-83
2022/02/14 00:06:34;;;;;;;9.13;5.22;;;;;;;-1.67;100.00;92457.09;2091574;28;20058;-83
2022/02/14 00:07:35;;;;;;;9.52;6.20;;;;;;;-1.67;100.00;92453.72;2083401;28;20440;-83
2022/02/14 00:08:36;;;;;;;7.03;5.40;;;;;;;-1.70;100.00;92449.94;2093404;28;20535;-83
2022/02/14 00:09:37;;;;;;;10.90;5.70;;;;;;;-1.68;100.00;92452.97;2112752;28;20034;-83
2022/02/14 00:10:38;;;;;;;8.93;5.78;;;;;;;-1.68;100.00;92452.97;2114504;28;20059;-82
2022/02/14 00:11:39;;;;;;;7.40;6.15;;;;;;;-1.61;100.00;92445.19;2107976;28;20020;-83
2022/02/14 00:12:42;;;;;;;7.32;5.40;;;;;;;-1.60;100.00;92446.69;2099833;28;20420;-83
2022/02/14 00:13:43;;;;;;;9.30;5.65;;;;;;;-1.70;100.00;92452.56;2083504;28;20031;-84
2022/02/14 00:14:44;;;;;;;8.65;5.32;;;;;;;-1.60;100.00;92449.31;2083440;28;20065;-83
2022/02/14 00:15:46;;;;;;;8.40;5.82;;;;;;;-1.62;100.00;92442.94;2091460;28;20025;-84
2022/02/14 00:16:47;;;;;;;8.77;6.28;;;;;;;-1.60;100.00;92444.09;2103386;28;20016;-84
2022/02/14 00:17:48;;;;;;;7.60;6.25;;;;;;;-1.62;100.00;92437.69;2087422;28;20028;-83
2022/02/14 00:18:49;;;;;;;7.03;5.43;;;;;;;-1.68;100.00;92437.25;2091371;28;20052;-83
2022/02/14 00:19:51;;;;;;;9.50;5.60;;;;;;;-1.57;100.00;92440.75;2094971;28;20033;-84
2022/02/14 00:20:52;;;;;;;8.60;5.25;;;;;;;-1.56;100.00;92436.28;2096693;28;20012;-84
2022/02/14 00:21:53;;;;;;;6.68;5.70;;;;;;;-1.62;100.00;92441.06;2089412;28;20021;-84
2022/02/14 00:22:54;;;;;;;9.05;5.50;;;;;;;-1.60;100.00;92432.84;2081217;28;20116;-84
2022/02/14 00:23:55;;;;;;;6.97;5.28;;;;;;;-1.64;100.00;92432.03;2087284;28;20570;-84
2022/02/14 00:24:57;;;;;;;5.75;5.00;;;;;;;-1.63;100.00;92429.06;2089316;28;20025;-84
2022/02/14 00:25:58;;;;;;;6.97;5.40;;;;;;;-1.62;100.00;92432.47;2088111;28;20071;-83
2022/02/14 00:26:59;;;;;;;9.27;5.25;;;;;;;-1.62;100.00;92438.47;2092463;28;20427;-84
2022/02/14 00:28:00;;;;;;;8.02;5.32;;;;;;;-1.61;100.00;92432.09;2096837;28;20027;-84
2022/02/14 00:29:01;;;;;;;8.13;5.10;;;;;;;-1.52;100.00;92437.81;2097564;28;20788;-84
2022/02/14 00:30:04;;;;;;;6.35;4.75;;;;;;;-1.32;100.00;92425.34;2097601;28;20476;-83
2022/02/14 00:31:05;;;;;;;7.43;5.32;;;;;;;-1.30;100.00;92428.34;2089769;28;20025;-83
2022/02/14 00:32:06;;;;;;;6.40;5.10;;;;;;;-1.14;100.00;92420.28;2078943;28;20477;-83
2022/02/14 00:33:07;;;;;;;5.88;5.30;;;;;;;-1.14;100.00;92420.28;2089307;28;20076;-84
2022/02/14 00:34:08;;;;;;;7.80;5.00;;;;;;;-1.18;100.00;92416.88;2089435;28;20055;-82
2022/02/14 00:35:13;;;;;;;6.93;5.35;;;;;;;-1.13;100.00;92423.66;2087314;28;20385;-83
2022/02/14 00:36:14;;;;;;;9.30;5.72;;;;;;;-1.08;100.00;92415.47;2082066;28;20025;-84
2022/02/14 00:37:16;;;;;;;8.93;5.53;;;;;;;-1.18;100.00;92416.13;2088031;28;20497;-83
2022/02/14 00:38:17;;;;;;;7.03;5.13;;;;;;;-1.16;100.00;92416.50;2093508;28;20111;-83
2022/02/14 00:39:18;;;;;;;6.70;4.95;;;;;;;-1.18;100.00;92414.25;2105441;28;20106;-83
2022/02/14 00:40:20;;;;;;;6.72;5.20;;;;;;;-1.27;100.00;92427.63;2097633;28;20012;-84
2022/02/14 00:41:20;;;;;;;8.73;5.45;;;;;;;-1.34;100.00;92424.16;2081104;28;20029;-83
2022/02/14 00:42:23;;;;;;;7.35;5.35;;;;;;;-1.44;100.00;92411.72;2089306;28;20112;-83
2022/02/14 00:43:24;;;;;;;7.05;4.80;;;;;;;-1.46;100.00;92417.28;2106203;28;20095;-83
2022/02/14 00:44:25;;;;;;;8.38;5.20;;;;;;;-1.46;100.00;92416.53;2097152;28;20028;-84
2022/02/14 00:45:26;;;;;;;7.32;5.13;;;;;;;-1.48;100.00;92418.78;2085592;28;20087;-84
2022/02/14 00:46:27;;;;;;;6.20;4.57;;;;;;;-1.45;100.00;92418.03;2092754;28;20352;-83
2022/02/14 00:47:28;;;;;;;5.90;5.22;;;;;;;-1.54;100.00;92410.44;2104664;28;20046;-83
2022/02/14 00:48:29;;;;;;;9.18;5.53;;;;;;;-1.48;100.00;92416.16;2096443;28;20463;-83
2022/02/14 00:49:30;;;;;;;6.18;5.25;;;;;;;-1.50;100.00;92413.88;2088306;28;20017;-82
2022/02/14 00:50:32;;;;;;;10.35;5.55;;;;;;;-1.50;100.00;92415.75;2088972;28;20017;-83
2022/02/14 00:51:33;;;;;;;8.57;4.80;;;;;;;-1.49;100.00;92410.16;2088073;28;20073;-84
2022/02/14 00:52:34;;;;;;;6.03;5.38;;;;;;;-1.55;100.00;92412.31;2089350;28;20573;-84
2022/02/14 00:53:35;;;;;;;8.75;5.47;;;;;;;-1.58;100.00;92412.28;2095075;28;20032;-84
2022/02/14 00:54:36;;;;;;;6.97;5.25;;;;;;;-1.60;100.00;92414.50;2097295;28;20406;-84
2022/02/14 00:55:37;;;;;;;7.47;5.00;;;;;;;-1.57;100.00;92405.94;2086857;28;20028;-83
2022/02/14 00:56:38;;;;;;;9.77;5.70;;;;;;;-1.59;100.00;92411.53;2082927;28;20087;-84
2022/02/14 00:57:39;;;;;;;8.60;5.82;;;;;;;-1.61;100.00;92411.13;2089257;28;20025;-84
2022/02/14 00:58:40;;;;;;;8.93;5.07;;;;;;;-1.60;100.00;92412.63;2097568;28;20028;-83
2022/02/14 00:59:41;;;;;;;6.85;5.30;;;;;;;-1.67;100.00;92402.06;2097294;28;20517;-84
2022/02/14 01:00:43;;;;;;;7.32;5.22;;;;;;;-1.68;100.00;92407.66;2087951;28;20063;-83
2022/02/14 01:01:44;;;;;;;7.00;5.13;;;;;;;-1.58;100.00;92405.19;2081206;28;20014;-84
2022/02/14 01:02:45;;;;;;;7.82;5.38;;;;;;;-1.57;100.00;92404.06;2081068;28;20013;-84
2022/02/14 01:03:47;;;;;;;6.90;5.60;;;;;;;-1.65;100.00;92397.25;2089552;28;20024;-83
2022/02/14 01:04:48;;;;;;;5.90;4.90;;;;;;;-1.56;100.00;92396.97;2087528;28;20546;-83
2022/02/14 01:05:49;;;;;;;10.00;4.88;;;;;;;-1.65;100.00;92406.97;2088835;28;20075;-84
2022/02/14 01:06:50;;;;;;;7.05;5.10;;;;;;;-1.74;100.00;92396.75;2091100;28;20021;-84
2022/02/14 01:07:52;;;;;;;7.47;5.13;;;;;;;-1.73;100.00;92397.50;2078503;28;20017;-83
2022/02/14 01:08:54;;;;;;;6.40;5.22;;;;;;;-1.77;100.00;92400.06;2091662;28;20013;-82
2022/02/14 01:09:55;;;;;;;7.35;5.00;;;;;;;-1.74;100.00;92391.50;2085002;28;20017;-84
2022/02/14 01:10:56;;;;;;;8.20;5.15;;;;;;;-1.74;100.00;92394.13;2079387;28;20103;-83
2022/02/14 01:11:57;;;;;;;5.90;5.30;;;;;;;-1.74;100.00;92394.13;2080616;28;20068;-84
2022/02/14 01:12:58;;;;;;;8.63;5.90;;;;;;;-1.77;100.00;92392.97;2083904;28;20032;-83
2022/02/14 01:13:59;;;;;;;7.38;5.57;;;;;;;-1.79;100.00;92397.06;2084682;28;20025;-83
2022/02/14 01:15:04;;;;;;;7.03;5.15;;;;;;;-1.82;100.00;92395.16;2088704;28;20043;-84
2022/02/14 01:16:05;;;;;;;6.93;5.50;;;;;;;-1.86;100.00;92389.88;2089315;28;20023;-83
2022/02/14 01:17:06;;;;;;;8.18;5.07;;;;;;;-1.78;100.00;92396.72;2086753;28;20048;-83
2022/02/14 01:18:07;;;;;;;10.25;4.82;;;;;;;-1.83;100.00;92396.28;2087002;28;20515;-83
2022/02/14 01:19:08;;;;;;;8.70;5.07;;;;;;;-1.79;100.00;92391.84;2082791;28;20021;-83
2022/02/14 01:20:11;;;;;;;8.15;4.97;;;;;;;-1.82;100.00;92393.28;2087069;28;20049;-83
2022/02/14 01:21:12;;;;;;;6.82;4.78;;;;;;;-1.82;100.00;92392.53;2103068;28;20105;-83
2022/02/14 01:22:13;;;;;;;10.38;5.15;;;;;;;-1.80;100.00;92387.69;2112663;28;20015;-83
2022/02/14 01:23:14;;;;;;;7.07;5.25;;;;;;;-1.86;100.00;92389.88;2096873;28;20178;-83
2022/02/14 01:24:16;;;;;;;7.55;5.38;;;;;;;-1.88;100.00;92388.72;2097087;28;20024;-83
2022/02/14 01:25:16;;;;;;;6.18;4.88;;;;;;;-1.84;100.00;92392.16;2097171;28;20079;-83
2022/02/14 01:26:17;;;;;;;6.63;4.95;;;;;;;-1.94;100.00;92383.03;2097020;28;20066;-84
2022/02/14 01:27:18;;;;;;;9.45;6.00;;;;;;;-1.96;100.00;92384.50;2096962;28;20088;-83
2022/02/14 01:28:19;;;;;;;7.85;5.93;;;;;;;-2.08;100.00;92385.47;2088989;28;20024;-83
2022/02/14 01:29:20;;;;;;;8.23;5.28;;;;;;;-2.07;100.00;92384.34;2097104;28;20021;-83
2022/02/14 01:30:21;;;;;;;8.10;5.47;;;;;;;-2.10;100.00;92380.59;2105437;28;20031;-83
2022/02/14 01:31:22;;;;;;;8.20;5.53;;;;;;;-2.12;100.00;92380.19;2096948;28;20442;-83
2022/02/14 01:32:23;;;;;;;6.22;5.13;;;;;;;-2.18;100.00;92380.84;2094882;28;20115;-82
2022/02/14 01:33:24;;;;;;;7.93;5.60;;;;;;;-2.17;100.00;92383.09;2105366;28;20470;-83
2022/02/14 01:34:25;;;;;;;6.82;4.97;;;;;;;-2.25;100.00;92376.25;2105245;28;20038;-83
2022/02/14 01:35:28;;;;;;;9.52;5.28;;;;;;;-2.24;100.00;92377.00;2096954;28;20511;-83
2022/02/14 01:36:28;;;;;;;5.68;5.05;;;;;;;-2.24;100.00;92377.75;2105252;28;20098;-83
2022/02/14 01:37:31;;;;;;;6.95;5.35;;;;;;;-2.25;100.00;92372.88;2095719;28;20370;-83
2022/02/14 01:38:32;;;;;;;7.07;5.32;;;;;;;-2.23;100.00;92368.81;2098408;28;20035;-83
2022/02/14 01:39:33;;;;;;;7.78;5.38;;;;;;;-2.24;100.00;92377.00;2097034;28;20020;-83
2022/02/14 01:40:34;;;;;;;7.50;5.13;;;;;;;-2.22;100.00;92370.31;2088755;28;20040;-83
2022/02/14 01:41:35;;;;;;;7.18;5.13;;;;;;;-2.22;100.00;92369.56;2088662;28;20673;-83
2022/02/14 01:42:36;;;;;;;7.25;5.00;;;;;;;-2.26;100.00;92366.91;2100870;28;20099;-84
2022/02/14 01:43:37;;;;;;;7.18;5.22;;;;;;;-2.35;100.00;92363.78;2103380;28;20020;-83
2022/02/14 01:44:44;;;;;;;6.75;5.07;;;;;;;-2.21;100.00;92361.38;2096934;28;20020;-83
2022/02/14 01:45:45;;;;;;;7.43;4.97;;;;;;;-2.25;100.00;92357.94;2097489;28;20524;-83
2022/02/14 01:46:46;;;;;;;9.00;5.55;;;;;;;-2.27;100.00;92352.31;2096587;28;20027;-84
2022/02/14 01:47:47;;;;;;;6.75;5.45;;;;;;;-2.39;100.00;92360.38;2096906;28;20684;-83
2022/02/14 01:48:48;;;;;;;7.20;4.90;;;;;;;-2.34;100.00;92357.44;2105359;28;20028;-83
2022/02/14 01:49:50;;;;;;;6.75;5.20;;;;;;;-2.38;100.00;92351.41;2096079;28;20020;-84
2022/02/14 01:50:51;;;;;;;7.07;4.80;;;;;;;-2.40;100.00;92354.38;2095277;28;20115;-84
2022/02/14 01:51:52;;;;;;;8.95;5.00;;;;;;;-2.30;100.00;92355.63;2094448;28;20059;-84
2022/02/14 01:52:54;;;;;;;8.23;5.35;;;;;;;-2.33;100.00;92364.97;2096795;28;20021;-83
2022/02/14 01:53:55;;;;;;;7.15;4.75;;;;;;;-2.42;100.00;92353.97;2113595;28;20072;-84
2022/02/14 01:54:56;;;;;;;6.60;5.25;;;;;;;-2.44;100.00;92350.97;2105183;28;20535;-83
2022/02/14 01:55:57;;;;;;;7.03;5.30;;;;;;;-2.45;100.00;92348.72;2088722;28;20491;-83
2022/02/14 01:56:58;;;;;;;8.32;4.95;;;;;;;-2.53;100.00;92350.47;2096925;28;20067;-83
2022/02/14 01:58:03;;;;;;;6.57;4.63;;;;;;;-2.45;100.00;92352.06;2096873;28;20106;-83
2022/02/14 01:59:05;;;;;;;5.82;4.75;;;;;;;-2.32;100.00;92350.00;2091107;28;20058;-83
2022/02/14 02:00:10;;;;;;;6.93;4.43;;;;;;;-2.38;100.00;92351.41;2089056;28;20021;-83
2022/02/14 02:01:11;;;;;;;8.77;5.47;;;;;;;-2.34;100.00;92354.81;2089627;28;20017;-83
2022/02/14 02:02:13;;;;;;;6.40;4.78;;;;;;;-2.35;100.00;92342.84;2092632;28;20105;-84
2022/02/14 02:03:15;;;;;;;6.32;4.82;;;;;;;-2.38;100.00;92341.69;2088955;28;20021;-83
2022/02/14 02:04:16;;;;;;;8.43;4.70;;;;;;;-2.28;100.00;92346.34;2099381;28;20029;-83
2022/02/14 02:05:17;;;;;;;7.82;4.90;;;;;;;-2.28;100.00;92348.94;2106221;28;20128;-83
2022/02/14 02:06:19;;;;;;;7.10;4.90;;;;;;;-2.37;100.00;92342.44;2104513;28;20746;-84
2022/02/14 02:07:20;;;;;;;7.05;4.88;;;;;;;-2.42;100.00;92335.66;2092358;28;20107;-83
2022/02/14 02:08:21;;;;;;;7.68;4.72;;;;;;;-2.31;100.00;92341.78;2097053;28;20035;-83
2022/02/14 02:12:34;;;;;;;10.18;4.80;;;;;;;-2.49;100.00;92332.19;2126872;27;20031;-84
2022/02/14 02:13:35;;;;;;;6.30;4.65;;;;;;;-2.59;100.00;92334.31;2108686;28;20499;-84
2022/02/14 02:14:37;;;;;;;7.47;5.15;;;;;;;-2.64;100.00;92337.22;2104319;28;20067;-84
2022/02/14 02:15:38;;;;;;;5.32;4.60;;;;;;;-2.69;100.00;92329.66;2104158;28;20610;-83
2022/02/14 02:16:39;;;;;;;5.93;4.63;;;;;;;-2.76;100.00;92331.44;2110639;27;20112;-83
2022/02/14 02:17:40;;;;;;;6.65;4.88;;;;;;;-2.75;100.00;92333.69;2119092;27;20019;-83
2022/02/14 02:18:41;;;;;;;8.68;4.93;;;;;;;-2.74;100.00;92324.75;2108584;28;20020;-84
2022/02/14 02:19:54;;;;;;;5.90;4.63;;;;;;;-2.75;100.00;92330.34;2117186;28;20077;-83
2022/02/14 02:20:54;;;;;;;7.97;4.50;;;;;;;-2.68;100.00;92327.81;2122655;27;20023;-84
2022/02/14 02:21:55;;;;;;;7.45;4.70;;;;;;;-2.65;100.00;92327.84;2118611;28;20023;-83
2022/02/14 02:22:56;;;;;;;7.60;5.28;;;;;;;-2.67;100.00;92324.84;2110918;28;20012;-84
2022/02/14 02:23:57;;;;;;;6.57;4.90;;;;;;;-2.68;100.00;92319.97;2119522;27;20122;-83
2022/02/14 02:25:00;;;;;;;8.30;4.82;;;;;;;-2.74;100.00;92322.13;2118966;28;20034;-84
2022/02/14 02:26:00;;;;;;;7.25;4.95;;;;;;;-2.83;100.00;92319.00;2111754;28;20024;-84
2022/02/14 02:27:04;;;;;;;6.38;4.85;;;;;;;-2.83;100.00;92319.75;2111480;27;20047;-83
2022/02/14 02:28:05;;;;;;;5.75;4.57;;;;;;;-2.77;100.00;92325.44;2112996;28;20012;-84
2022/02/14 02:29:06;;;;;;;5.43;4.93;;;;;;;-2.78;100.00;92316.84;2104169;28;20503;-84
2022/02/14 02:30:09;;;;;;;6.97;4.65;;;;;;;-2.76;100.00;92321.72;2104230;28;20568;-83
2022/02/14 02:31:10;;;;;;;9.35;4.65;;;;;;;-2.86;100.00;92312.59;2111974;28;20126;-84
2022/02/14 02:32:12;;;;;;;8.00;4.63;;;;;;;-2.87;100.00;92315.59;2104636;28;20102;-84
2022/02/14 02:33:13;;;;;;;6.10;4.53;;;;;;;-2.86;100.00;92315.22;2127965;27;20501;-84
2022/02/14 02:34:14;;;;;;;6.78;4.53;;;;;;;-2.99;100.00;92313.91;2118867;28;20031;-84
2022/02/14 02:35:15;;;;;;;7.65;4.45;;;;;;;-3.02;100.00;92309.38;2110402;27;20019;-83
2022/02/14 02:36:16;;;;;;;7.82;4.50;;;;;;;-2.98;100.00;92312.06;2119779;28;20016;-84
2022/02/14 02:37:17;;;;;;;6.13;4.15;;;;;;;-2.91;100.00;92309.53;2103427;28;20043;-84
2022/02/14 02:38:18;;;;;;;6.57;4.82;;;;;;;-2.99;100.00;92308.66;2106897;28;20106;-84
2022/02/14 02:39:20;;;;;;;5.63;4.20;;;;;;;-3.00;100.00;92303.81;2111815;28;20032;-84
2022/02/14 02:40:23;;;;;;;5.47;4.15;;;;;;;-2.98;100.00;92304.97;2104056;28;20050;-84
2022/02/14 02:41:24;;;;;;;5.40;4.40;;;;;;;-2.94;100.00;92302.38;2118946;28;20084;-83
2022/02/14 02:42:25;;;;;;;7.60;4.57;;;;;;;-2.92;100.00;92300.19;2110242;28;20062;-84
2022/02/14 02:43:28;;;;;;;5.40;4.10;;;;;;;-2.90;100.00;92303.19;2120843;28;20011;-84
2022/02/14 02:44:29;;;;;;;7.97;4.72;;;;;;;-2.95;100.00;92298.28;2121207;27;20057;-83
2022/02/14 02:45:30;;;;;;;6.05;4.32;;;;;;;-2.82;100.00;92299.59;2116957;27;20030;-83
2022/02/14 02:46:31;;;;;;;4.40;3.97;;;;;;;-2.90;100.00;92296.09;2119945;28;20016;-83
2022/02/14 02:47:32;;;;;;;4.65;3.95;;;;;;;-2.86;100.00;92291.69;2109169;28;20089;-83
2022/02/14 02:48:33;;;;;;;5.50;4.07;;;;;;;-2.88;100.00;92288.69;2103984;28;20024;-83
2022/02/14 02:49:35;;;;;;;6.28;4.20;;;;;;;-2.85;100.00;92292.47;2104090;28;20024;-83
2022/02/14 02:51:01;;;;;;;3.78;3.35;;;;;;;-2.90;100.00;92290.13;2103994;28;20422;-83
2022/02/14 02:51:57;;;;;;;5.60;3.95;;;;;;;-2.92;100.00;92282.66;2117618;27;20023;-83
2022/02/14 02:52:58;;;;;;;4.18;3.40;;;;;;;-2.98;100.00;92284.06;2108607;28;20023;-83
2022/02/14 02:53:59;;;;;;;5.13;3.80;;;;;;;-2.98;100.00;92288.53;2103786;28;20020;-83
2022/02/14 02:55:00;;;;;;;6.25;3.55;;;;;;;-3.07;100.00;92280.94;2103306;28;20046;-83
2022/02/14 02:56:04;;;;;;;5.68;3.92;;;;;;;-3.14;100.00;92281.56;2111258;28;20035;-83
2022/02/14 02:57:05;;;;;;;4.40;3.63;;;;;;;-3.11;100.00;92283.50;2104532;28;20691;-84
2022/02/14 02:58:06;;;;;;;7.85;3.80;;;;;;;-3.13;100.00;92288.28;2100058;28;20016;-84
2022/02/14 02:59:10;;;;;;;4.63;3.65;;;;;;;-3.16;100.00;92288.25;2106201;28;20020;-84
2022/02/14 03:00:11;;;;;;;5.70;3.83;;;;;;;-3.24;100.00;92276.94;2108851;27;20492;-84
2022/02/14 03:01:25;;;;;;;5.60;3.75;;;;;;;-3.15;100.00;92279.31;2105926;28;20173;-83
2022/02/14 03:02:26;;;;;;;5.07;3.53;;;;;;;-3.11;100.00;92280.13;2111915;28;20055;-84
2022/02/14 03:03:27;;;;;;;4.68;3.67;;;;;;;-3.16;100.00;92272.56;2119157;27;20103;-83
2022/02/14 03:04:28;;;;;;;4.50;3.55;;;;;;;-3.22;100.00;92279.94;2117921;28;20031;-83
2022/02/14 03:05:29;;;;;;;5.63;3.80;;;;;;;-3.13;100.00;92284.94;2105956;28;20052;-85
2022/02/14 03:06:31;;;;;;;4.78;3.10;;;;;;;-3.11;100.00;92270.44;2114497;28;20038;-83
2022/02/14 03:07:32;;;;;;;5.07;3.42;;;;;;;-3.14;100.00;92270.38;2102764;28;20116;-84
2022/02/14 03:08:32;;;;;;;4.50;3.42;;;;;;;-3.15;100.00;92264.38;2105674;28;20353;-84
2022/02/14 03:09:33;;;;;;;6.20;3.40;;;;;;;-3.11;100.00;92265.19;2103221;28;20016;-84
2022/02/14 03:10:34;;;;;;;7.18;3.35;;;;;;;-3.03;100.00;92266.03;2097266;28;20077;-84
2022/02/14 03:11:37;;;;;;;4.75;3.28;;;;;;;-3.00;100.00;92264.59;2105184;28;20016;-83
2022/02/14 03:12:38;;;;;;;5.10;3.28;;;;;;;-3.09;100.00;92268.19;2094201;28;20017;-84
2022/02/14 03:13:39;;;;;;;4.00;2.97;;;;;;;-3.15;100.00;92266.25;2101881;28;20020;-84
2022/02/14 03:14:40;;;;;;;3.88;3.10;;;;;;;-3.19;100.00;92260.97;2099734;28;20063;-83
2022/02/14 03:15:41;;;;;;;6.47;3.35;;;;;;;-3.22;100.00;92264.28;2093477;28;20013;-84
2022/02/14 03:16:43;;;;;;;4.57;3.30;;;;;;;-3.17;100.00;92256.13;2095651;28;20025;-83
2022/02/14 03:17:44;;;;;;;4.68;3.35;;;;;;;-3.23;100.00;92256.78;2103808;28;20032;-83
2022/02/14 03:18:45;;;;;;;4.80;3.30;;;;;;;-3.24;100.00;92260.50;2099560;28;20063;-84
2022/02/14 03:19:46;;;;;;;6.10;3.42;;;;;;;-3.25;100.00;92257.13;2103978;28;20034;-83
2022/02/14 03:20:47;;;;;;;5.22;3.38;;;;;;;-3.21;100.00;92263.16;2105653;28;20100;-83
2022/02/14 03:21:50;;;;;;;5.15;3.30;;;;;;;-3.21;100.00;92257.19;2103107;28;20016;-84
2022/02/14 03:22:51;;;;;;;5.25;3.80;;;;;;;-3.09;100.00;92255.13;2096840;28;20425;-83
2022/02/14 03:23:53;;;;;;;4.63;3.88;;;;;;;-3.15;100.00;92248.72;2100176;28;20029;-83
2022/02/14 03:24:54;;;;;;;4.68;3.53;;;;;;;-3.01;100.00;92250.03;2098197;28;20017;-84
2022/02/14 03:25:55;;;;;;;5.82;4.10;;;;;;;-2.96;100.00;92247.09;2087985;28;20025;-84
2022/02/14 03:26:56;;;;;;;8.95;4.15;;;;;;;-2.79;100.00;92251.81;2090624;28;20021;-83
2022/02/14 03:27:58;;;;;;;5.00;3.70;;;;;;;-2.78;100.00;92248.09;2098215;28;20017;-82
2022/02/14 03:28:59;;;;;;;4.63;4.15;;;;;;;-2.77;100.00;92249.59;2093844;28;20527;-84
2022/02/14 03:30:00;;;;;;;6.38;4.30;;;;;;;-2.42;100.00;92248.56;2085855;28;20045;-83
2022/02/14 03:31:02;;;;;;;4.43;3.90;;;;;;;-2.48;100.00;92248.13;2102248;28;20350;-83
2022/02/14 03:32:03;;;;;;;6.75;4.25;;;;;;;-2.51;100.00;92243.59;2103324;28;20039;-84
2022/02/14 03:33:05;;;;;;;6.65;4.50;;;;;;;-2.61;100.00;92247.59;2105087;28;20572;-82
2022/02/14 03:34:07;;;;;;;5.60;3.78;;;;;;;-2.68;100.00;92244.09;2102109;28;20031;-83
2022/02/14 03:35:08;;;;;;;4.03;3.55;;;;;;;-2.75;100.00;92244.03;2093931;28;20123;-83
2022/02/14 03:36:20;;;;;;;5.93;4.35;;;;;;;-2.73;100.00;92249.66;2106783;28;20789;-83
2022/02/14 03:37:21;;;;;;;7.35;4.22;;;;;;;-2.81;100.00;92241.72;2099011;28;20531;-84
2022/02/14 03:38:22;;;;;;;4.30;3.83;;;;;;;-2.66;100.00;92247.13;2108151;28;20035;-83
2022/02/14 03:39:23;;;;;;;5.70;3.85;;;;;;;-2.72;100.00;92243.31;2106526;28;20020;-84
2022/02/14 03:40:25;;;;;;;6.18;4.50;;;;;;;-2.85;100.00;92246.16;2101638;28;20032;-83
2022/02/14 03:41:26;;;;;;;4.85;3.97;;;;;;;-2.90;100.00;92250.91;2098237;28;20047;-83
2022/02/14 03:42:27;;;;;;;5.75;3.33;;;;;;;-2.93;100.00;92241.19;2093921;28;20020;-83
2022/02/14 03:43:27;;;;;;;4.88;4.05;;;;;;;-2.90;100.00;92245.69;2086037;28;20021;-83
2022/02/14 03:44:28;;;;;;;4.28;3.78;;;;;;;-2.88;100.00;92243.47;2085129;28;20109;-83
2022/02/14 03:45:31;;;;;;;6.20;4.00;;;;;;;-2.90;100.00;92240.44;2093170;28;20025;-83
2022/02/14 03:46:32;;;;;;;5.90;3.53;;;;;;;-2.97;100.00;92245.59;2101411;28;20176;-83
2022/02/14 03:47:33;;;;;;;6.15;4.13;;;;;;;-2.95;100.00;92241.50;2096160;28;20058;-84
2022/02/14 03:48:34;;;;;;;8.43;3.42;;;;;;;-2.94;100.00;92244.88;2099462;28;20082;-84
2022/02/14 03:49:35;;;;;;;6.20;3.28;;;;;;;-3.08;100.00;92245.44;2105803;28;20070;-84
2022/02/14 03:50:36;;;;;;;5.28;3.55;;;;;;;-3.09;100.00;92238.69;2096967;28;20363;-84
2022/02/14 03:51:37;;;;;;;4.68;3.40;;;;;;;-3.02;100.00;92241.44;2084906;28;20017;-84
2022/02/14 03:52:38;;;;;;;4.55;3.60;;;;;;;-2.99;100.00;92229.50;2091586;28;20024;-84
2022/02/14 03:53:39;;;;;;;5.82;3.75;;;;;;;-2.97;100.00;92232.53;2091771;28;20669;-84
2022/02/14 03:54:40;;;;;;;5.75;3.70;;;;;;;-3.05;100.00;92235.03;2097965;28;20381;-83
2022/02/14 03:55:41;;;;;;;5.15;3.28;;;;;;;-3.08;100.00;92230.50;2098166;28;20107;-83
2022/02/14 03:56:42;;;;;;;5.97;3.75;;;;;;;-3.07;100.00;92244.34;2107975;28;20016;-83
2022/02/14 03:57:45;;;;;;;4.97;3.15;;;;;;;-3.10;100.00;92235.34;2097936;28;20027;-84
2022/02/14 03:58:46;;;;;;;4.53;3.92;;;;;;;-3.08;100.00;92234.97;2088908;28;20021;-84
2022/02/14 03:59:47;;;;;;;4.72;3.17;;;;;;;-3.10;100.00;92227.50;2088426;28;20071;-83
2022/02/14 04:00:48;;;;;;;4.68;3.38;;;;;;;-3.16;100.00;92235.97;2092663;28;20707;-84
2022/02/14 04:01:49;;;;;;;5.30;3.80;;;;;;;-3.10;100.00;92232.72;2095886;28;20473;-83
2022/02/14 04:02:51;;;;;;;5.13;3.42;;;;;;;-3.19;100.00;92229.59;2098792;28;20079;-83
2022/02/14 04:03:52;;;;;;;4.13;3.72;;;;;;;-3.18;100.00;92227.75;2091706;28;20402;-84
2022/02/14 04:04:55;;;;;;;3.92;3.30;;;;;;;-3.24;100.00;92224.69;2091210;28;20024;-83
2022/02/14 04:05:56;;;;;;;4.00;3.60;;;;;;;-3.19;100.00;92226.25;2089877;28;20033;-84
2022/02/14 04:06:57;;;;;;;5.03;3.40;;;;;;;-3.17;100.00;92226.63;2087874;28;20025;-84
2022/02/14 04:07:59;;;;;;;5.97;3.70;;;;;;;-3.19;100.00;92228.84;2093615;28;20111;-83
2022/02/14 04:08:59;;;;;;;4.18;3.42;;;;;;;-3.21;100.00;92231.81;2094167;28;20054;-84
2022/02/14 04:10:01;;;;;;;5.72;3.67;;;;;;;-3.16;100.00;92226.28;2086775;28;20440;-84
2022/02/14 04:11:02;;;;;;;8.27;3.72;;;;;;;-3.17;100.00;92224.00;2091651;28;20478;-84
2022/02/14 04:12:03;;;;;;;5.40;3.50;;;;;;;-3.20;100.00;92222.88;2095970;28;20020;-84
2022/02/14 04:13:04;;;;;;;4.70;3.65;;;;;;;-3.16;100.00;92223.69;2095050;28;20017;-84
2022/02/14 04:14:05;;;;;;;5.22;3.58;;;;;;;-3.09;100.00;92225.63;2091060;28;20474;-84
2022/02/14 04:15:07;;;;;;;6.60;3.95;;;;;;;-2.94;100.00;92226.56;2102006;28;20532;-84
2022/02/14 04:16:08;;;;;;;4.53;3.47;;;;;;;-2.95;100.00;92231.06;2095960;28;20096;-84
2022/02/14 04:17:09;;;;;;;5.53;3.45;;;;;;;-2.98;100.00;92228.41;2093823;28;20062;-84
2022/02/14 04:18:10;;;;;;;4.35;3.50;;;;;;;-3.00;100.00;92223.53;2087635;28;20255;-84
2022/02/14 04:19:11;;;;;;;6.03;4.53;;;;;;;-3.10;100.00;92230.09;2081365;28;20120;-84
2022/02/14 04:20:12;;;;;;;5.45;3.45;;;;;;;-3.07;100.00;92228.66;2089522;28;20055;-83
2022/02/14 04:21:13;;;;;;;6.22;4.28;;;;;;;-3.04;100.00;92220.84;2092282;28;20069;-84
2022/02/14 04:22:14;;;;;;;6.00;4.18;;;;;;;-3.10;100.00;92235.34;2088878;28;20013;-84
2022/02/14 04:23:17;;;;;;;5.30;3.83;;;;;;;-3.05;100.00;92227.19;2091700;28;20090;-84
2022/02/14 04:24:18;;;;;;;4.32;3.72;;;;;;;-3.07;100.00;92229.41;2097771;28;20080;-84
2022/02/14 04:25:19;;;;;;;5.07;3.40;;;;;;;-3.13;100.00;92230.06;2086993;28;20775;-83
2022/02/14 04:26:20;;;;;;;4.93;3.30;;;;;;;-3.22;100.00;92232.16;2090176;28;20025;-83
2022/02/14 04:27:21;;;;;;;4.82;3.42;;;;;;;-3.11;100.00;92227.84;2089142;28;20013;-84
2022/02/14 04:28:22;;;;;;;4.35;3.42;;;;;;;-3.10;100.00;92226.75;2099557;28;20369;-83
2022/02/14 04:29:23;;;;;;;7.88;4.22;;;;;;;-3.13;100.00;92227.44;2105497;28;20048;-84
2022/02/14 04:30:29;;;;;;;5.85;3.60;;;;;;;-3.11;100.00;92220.00;2083207;28;20022;-83
2022/02/14 04:31:29;;;;;;;5.53;3.90;;;;;;;-3.19;100.00;92221.00;2084675;28;20051;-83
2022/02/14 04:32:31;;;;;;;6.22;3.90;;;;;;;-3.19;100.00;92227.00;2091065;28;20071;-84
2022/02/14 04:33:32;;;;;;;5.93;3.75;;;;;;;-3.28;100.00;92218.66;2104828;28;20076;-84
2022/02/14 04:34:35;;;;;;;5.03;4.07;;;;;;;-3.39;100.00;92226.31;2109763;28;20012;-83
2022/02/14 04:35:36;;;;;;;5.28;3.60;;;;;;;-3.37;100.00;92224.13;2101000;28;20024;-83
2022/02/14 04:36:37;;;;;;;6.10;4.13;;;;;;;-3.28;100.00;92223.88;2091905;28;20021;-83
2022/02/14 04:37:38;;;;;;;6.78;3.95;;;;;;;-3.30;100.00;92218.22;2103474;28;20023;-83
2022/02/14 04:38:39;;;;;;;6.13;3.80;;;;;;;-3.38;100.00;92214.78;2101743;28;20020;-83
2022/02/14 04:39:40;;;;;;;6.35;3.78;;;;;;;-3.44;100.00;92218.00;2097411;28;20016;-83
2022/02/14 04:40:41;;;;;;;4.68;3.65;;;;;;;-3.44;100.00;92220.63;2089345;28;20052;-84
2022/02/14 04:41:42;;;;;;;8.90;3.72;;;;;;;-3.41;100.00;92210.25;2091067;28;20017;-84
2022/02/14 04:42:43;;;;;;;7.65;3.95;;;;;;;-3.45;100.00;92222.50;2090462;28;20036;-84
2022/02/14 04:43:52;;;;;;;6.30;3.90;;;;;;;-3.34;100.00;92212.19;2090897;28;20111;-83
2022/02/14 04:44:53;;;;;;;5.47;3.47;;;;;;;-3.27;100.00;92214.16;2090250;28;20017;-83
2022/02/14 04:45:54;;;;;;;5.20;3.67;;;;;;;-3.30;100.00;92216.38;2093168;28;20055;-83
2022/02/14 04:46:55;;;;;;;5.78;3.30;;;;;;;-3.36;100.00;92211.81;2089239;28;20052;-83
2022/02/14 04:47:57;;;;;;;4.72;3.33;;;;;;;-3.36;100.00;92212.56;2087238;28;20025;-83
2022/02/14 04:48:58;;;;;;;4.05;2.97;;;;;;;-3.42;100.00;92213.97;2087325;28;20023;-83